sensor_id;sensor_type;location;lat;lon;timestamp;pressure;altitude;pressure_sealevel;temperature;humidity
13767;BME280;47980;48.794;9.176;2024-03-07T00:01:27;98758.28;;;7.87;100.00
13767;BME280;47980;48.794;9.176;2024-03-07T00:03:58;98764.06;;;7.89;100.00
13767;BME280;47980;48.794;9.176;2024-03-07T00:06:30;98754.81;;;8.05;99.04
13767;BME280;47980;48.794;9.176;2024-03-07T00:09:01;98758.50;;;7.90;98.75
13767;BME280;47980;48.794;9.176;2024-03-07T00:11:33;98760.66;;;7.88;98.10
13767;BME280;47980;48.794;9.176;2024-03-07T00:14:06;98763.16;;;7.80;100.00
13767;BME280;47980;48.794;9.176;2024-03-07T00:16:38;98763.94;;;7.80;98.46
13767;BME280;47980;48.794;9.176;2024-03-07T00:19:10;98765.78;;;7.80;99.08
13767;BME280;47980;48.794;9.176;2024-03-07T00:21:45;98767.66;;;7.79;98.71
13767;BME280;47980;48.794;9.176;2024-03-07T00:24:16;98756.00;;;7.80;97.71
13767;BME280;47980;48.794;9.176;2024-03-07T00:26:49;98761.97;;;7.72;96.12
13767;BME280;47980;48.794;9.176;2024-03-07T00:29:22;98759.84;;;7.74;96.14
13767;BME280;47980;48.794;9.176;2024-03-07T00:31:54;98768.81;;;7.73;95.12
13767;BME280;47980;48.794;9.176;2024-03-07T00:34:26;98763.28;;;7.88;93.54
13767;BME280;47980;48.794;9.176;2024-03-07T00:36:57;98761.78;;;7.50;96.02
13767;BME280;47980;48.794;9.176;2024-03-07T00:39:29;98768.16;;;7.48;96.17
13767;BME280;47980;48.794;9.176;2024-03-07T00:42:04;98759.16;;;7.50;96.06
13767;BME280;47980;48.794;9.176;2024-03-07T00:44:37;98758.28;;;7.54;94.80
13767;BME280;47980;48.794;9.176;2024-03-07T00:47:08;98760.91;;;7.54;92.54
13767;BME280;47980;48.794;9.176;2024-03-07T00:49:40;98761.28;;;7.66;92.17
13767;BME280;47980;48.794;9.176;2024-03-07T00:52:12;98761.22;;;7.53;92.49
13767;BME280;47980;48.794;9.176;2024-03-07T00:54:44;98758.56;;;7.53;90.97
13767;BME280;47980;48.794;9.176;2024-03-07T00:57:15;98762.16;;;7.43;91.06
13767;BME280;47980;48.794;9.176;2024-03-07T00:59:48;98752.69;;;7.75;88.10
13767;BME280;47980;48.794;9.176;2024-03-07T01:02:20;98755.16;;;7.52;88.93
13767;BME280;47980;48.794;9.176;2024-03-07T01:04:51;98759.06;;;7.74;88.08
13767;BME280;47980;48.794;9.176;2024-03-07T01:07:23;98753.66;;;7.46;90.06
13767;BME280;47980;48.794;9.176;2024-03-07T01:09:55;98747.75;;;7.35;91.22
13767;BME280;47980;48.794;9.176;2024-03-07T01:12:31;98749.88;;;7.14;92.42
13767;BME280;47980;48.794;9.176;2024-03-07T01:15:06;98747.63;;;7.27;91.64
13767;BME280;47980;48.794;9.176;2024-03-07T01:17:39;98748.13;;;7.10;95.85
13767;BME280;47980;48.794;9.176;2024-03-07T01:20:11;98743.41;;;7.26;93.70
13767;BME280;47980;48.794;9.176;2024-03-07T01:22:42;98738.00;;;7.17;93.77
13767;BME280;47980;48.794;9.176;2024-03-07T01:25:14;98745.25;;;7.06;92.88
13767;BME280;47980;48.794;9.176;2024-03-07T01:27:46;98740.19;;;7.10;93.36
13767;BME280;47980;48.794;9.176;2024-03-07T01:30:20;98741.53;;;7.26;90.31
13767;BME280;47980;48.794;9.176;2024-03-07T01:32:53;98743.56;;;7.15;91.90
13767;BME280;47980;48.794;9.176;2024-03-07T01:35:25;98740.84;;;7.20;89.91
13767;BME280;47980;48.794;9.176;2024-03-07T01:37:57;98737.53;;;6.72;92.74
13767;BME280;47980;48.794;9.176;2024-03-07T01:40:28;98737.00;;;6.94;91.30
13767;BME280;47980;48.794;9.176;2024-03-07T01:43:01;98733.75;;;6.97;91.98
13767;BME280;47980;48.794;9.176;2024-03-07T01:45:34;98729.69;;;6.67;90.98
13767;BME280;47980;48.794;9.176;2024-03-07T01:48:09;98733.88;;;6.68;91.76
13767;BME280;47980;48.794;9.176;2024-03-07T01:50:41;98731.66;;;6.56;91.59
13767;BME280;47980;48.794;9.176;2024-03-07T01:53:13;98722.88;;;6.42;91.64
13767;BME280;47980;48.794;9.176;2024-03-07T01:55:45;98719.16;;;6.19;93.00
13767;BME280;47980;48.794;9.176;2024-03-07T01:58:18;98715.56;;;6.10;94.53
13767;BME280;47980;48.794;9.176;2024-03-07T02:00:51;98714.75;;;6.14;92.95
13767;BME280;47980;48.794;9.176;2024-03-07T02:03:23;98726.56;;;6.17;93.44
13767;BME280;47980;48.794;9.176;2024-03-07T02:05:55;98704.44;;;6.18;91.61
13767;BME280;47980;48.794;9.176;2024-03-07T02:08:27;98712.84;;;6.20;90.85
13767;BME280;47980;48.794;9.176;2024-03-07T02:10:58;98705.00;;;6.15;89.99
13767;BME280;47980;48.794;9.176;2024-03-07T02:13:30;98705.88;;;6.05;90.59
13767;BME280;47980;48.794;9.176;2024-03-07T02:16:03;98701.19;;;6.26;88.18
13767;BME280;47980;48.794;9.176;2024-03-07T02:18:35;98700.22;;;5.93;87.97
13767;BME280;47980;48.794;9.176;2024-03-07T02:21:09;98702.22;;;6.01;87.45
13767;BME280;47980;48.794;9.176;2024-03-07T02:23:41;98700.84;;;5.79;86.71
13767;BME280;47980;48.794;9.176;2024-03-07T02:26:13;98699.72;;;5.86;87.87
13767;BME280;47980;48.794;9.176;2024-03-07T02:28:45;98693.25;;;6.02;85.99
13767;BME280;47980;48.794;9.176;2024-03-07T02:31:16;98692.94;;;5.79;86.53
13767;BME280;47980;48.794;9.176;2024-03-07T02:33:53;98694.63;;;5.70;89.46
13767;BME280;47980;48.794;9.176;2024-03-07T02:36:26;98689.53;;;6.08;86.49
13767;BME280;47980;48.794;9.176;2024-03-07T02:38:58;98686.66;;;5.75;84.93
13767;BME280;47980;48.794;9.176;2024-03-07T02:41:30;98685.56;;;5.82;85.47
13767;BME280;47980;48.794;9.176;2024-03-07T02:44:01;98683.75;;;5.77;85.67
13767;BME280;47980;48.794;9.176;2024-03-07T02:46:34;98682.00;;;5.67;85.17
13767;BME280;47980;48.794;9.176;2024-03-07T02:49:05;98688.50;;;5.46;86.61
13767;BME280;47980;48.794;9.176;2024-03-07T02:51:38;98684.66;;;5.33;87.17
13767;BME280;47980;48.794;9.176;2024-03-07T02:54:10;98684.81;;;5.13;90.11
13767;BME280;47980;48.794;9.176;2024-03-07T02:56:42;98678.66;;;5.27;90.57
13767;BME280;47980;48.794;9.176;2024-03-07T02:59:14;98678.38;;;5.29;88.22
13767;BME280;47980;48.794;9.176;2024-03-07T03:01:45;98670.25;;;5.25;87.65
13767;BME280;47980;48.794;9.176;2024-03-07T03:04:17;98674.66;;;5.35;87.60
13767;BME280;47980;48.794;9.176;2024-03-07T03:06:51;98676.81;;;5.28;88.74
13767;BME280;47980;48.794;9.176;2024-03-07T03:09:22;98675.78;;;5.24;87.73
13767;BME280;47980;48.794;9.176;2024-03-07T03:11:54;98680.84;;;5.15;89.74
13767;BME280;47980;48.794;9.176;2024-03-07T03:14:25;98681.59;;;5.21;90.80
13767;BME280;47980;48.794;9.176;2024-03-07T03:16:57;98675.06;;;5.47;89.85
13767;BME280;47980;48.794;9.176;2024-03-07T03:19:28;98675.16;;;5.66;86.72
13767;BME280;47980;48.794;9.176;2024-03-07T03:22:01;98682.72;;;5.44;88.58
13767;BME280;47980;48.794;9.176;2024-03-07T03:24:33;98668.22;;;5.17;89.53
13767;BME280;47980;48.794;9.176;2024-03-07T03:27:05;98675.09;;;5.08;90.61
13767;BME280;47980;48.794;9.176;2024-03-07T03:29:38;98680.94;;;5.00;94.63
13767;BME280;47980;48.794;9.176;2024-03-07T03:32:10;98666.97;;;5.04;92.25
13767;BME280;47980;48.794;9.176;2024-03-07T03:34:42;98668.31;;;5.02;93.04
13767;BME280;47980;48.794;9.176;2024-03-07T03:37:15;98672.50;;;5.03;92.71
13767;BME280;47980;48.794;9.176;2024-03-07T03:39:47;98675.44;;;4.96;91.68
13767;BME280;47980;48.794;9.176;2024-03-07T03:42:19;98676.31;;;4.87;92.65
13767;BME280;47980;48.794;9.176;2024-03-07T03:44:51;98674.72;;;4.86;93.00
13767;BME280;47980;48.794;9.176;2024-03-07T03:47:23;98676.31;;;4.87;91.33
13767;BME280;47980;48.794;9.176;2024-03-07T03:49:57;98670.38;;;5.10;91.31
13767;BME280;47980;48.794;9.176;2024-03-07T03:52:30;98667.53;;;5.36;87.31
13767;BME280;47980;48.794;9.176;2024-03-07T03:55:02;98668.81;;;5.09;85.55
13767;BME280;47980;48.794;9.176;2024-03-07T03:57:36;98667.19;;;5.13;85.78
13767;BME280;47980;48.794;9.176;2024-03-07T04:00:10;98670.69;;;4.59;88.62
13767;BME280;47980;48.794;9.176;2024-03-07T04:02:45;98666.91;;;4.75;87.93
13767;BME280;47980;48.794;9.176;2024-03-07T04:05:19;98664.44;;;4.89;87.49
13767;BME280;47980;48.794;9.176;2024-03-07T04:07:53;98670.22;;;4.91;87.57
13767;BME280;47980;48.794;9.176;2024-03-07T04:10:25;98664.72;;;5.27;85.60
13767;BME280;47980;48.794;9.176;2024-03-07T04:12:57;98671.78;;;4.92;85.81
13767;BME280;47980;48.794;9.176;2024-03-07T04:15:29;98661.81;;;4.89;86.90
13767;BME280;47980;48.794;9.176;2024-03-07T04:18:02;98671.06;;;4.81;88.49
13767;BME280;47980;48.794;9.176;2024-03-07T04:20:33;98662.13;;;5.22;85.91
13767;BME280;47980;48.794;9.176;2024-03-07T04:23:06;98669.72;;;4.89;86.39
13767;BME280;47980;48.794;9.176;2024-03-07T04:25:38;98658.72;;;5.21;84.15
13767;BME280;47980;48.794;9.176;2024-03-07T04:28:09;98663.00;;;5.12;85.34
13767;BME280;47980;48.794;9.176;2024-03-07T04:30:41;98656.03;;;5.26;84.82
13767;BME280;47980;48.794;9.176;2024-03-07T04:33:13;98657.22;;;5.10;85.25
13767;BME280;47980;48.794;9.176;2024-03-07T04:35:45;98655.41;;;5.05;85.22
13767;BME280;47980;48.794;9.176;2024-03-07T04:38:18;98661.88;;;5.18;85.67
13767;BME280;47980;48.794;9.176;2024-03-07T04:40:49;98655.41;;;5.05;84.27
13767;BME280;47980;48.794;9.176;2024-03-07T04:43:21;98656.94;;;5.12;85.74
13767;BME280;47980;48.794;9.176;2024-03-07T04:45:52;98657.16;;;4.81;87.43
13767;BME280;47980;48.794;9.176;2024-03-07T04:48:25;98656.09;;;4.82;86.69
13767;BME280;47980;48.794;9.176;2024-03-07T04:50:56;98658.28;;;4.65;86.82
13767;BME280;47980;48.794;9.176;2024-03-07T04:53:32;98656.94;;;4.72;89.12
13767;BME280;47980;48.794;9.176;2024-03-07T04:56:04;98657.88;;;4.47;90.14
13767;BME280;47980;48.794;9.176;2024-03-07T04:58:35;98668.00;;;4.64;88.75
13767;BME280;47980;48.794;9.176;2024-03-07T05:01:07;98662.50;;;4.66;87.50
13767;BME280;47980;48.794;9.176;2024-03-07T05:03:38;98658.84;;;4.56;88.77
13767;BME280;47980;48.794;9.176;2024-03-07T05:06:10;98662.38;;;4.37;89.41
13767;BME280;47980;48.794;9.176;2024-03-07T05:08:43;98669.50;;;4.26;90.74
13767;BME280;47980;48.794;9.176;2024-03-07T05:11:14;98662.44;;;4.21;91.49
13767;BME280;47980;48.794;9.176;2024-03-07T05:13:47;98667.38;;;4.28;91.48
13767;BME280;47980;48.794;9.176;2024-03-07T05:16:19;98662.47;;;4.11;88.89
13767;BME280;47980;48.794;9.176;2024-03-07T05:18:51;98669.25;;;4.22;89.20
13767;BME280;47980;48.794;9.176;2024-03-07T05:21:23;98655.41;;;4.01;89.59
13767;BME280;47980;48.794;9.176;2024-03-07T05:24:11;98658.56;;;3.98;90.52
13767;BME280;47980;48.794;9.176;2024-03-07T05:26:43;98662.03;;;3.89;91.83
13767;BME280;47980;48.794;9.176;2024-03-07T05:29:15;98655.19;;;3.88;90.72
13767;BME280;47980;48.794;9.176;2024-03-07T05:31:47;98656.00;;;3.78;91.29
13767;BME280;47980;48.794;9.176;2024-03-07T05:34:19;98648.91;;;3.89;90.57
13767;BME280;47980;48.794;9.176;2024-03-07T05:36:53;98650.97;;;3.92;90.73
13767;BME280;47980;48.794;9.176;2024-03-07T05:39:26;98653.31;;;3.98;89.72
13767;BME280;47980;48.794;9.176;2024-03-07T05:41:57;98657.53;;;3.94;89.83
13767;BME280;47980;48.794;9.176;2024-03-07T05:44:29;98654.19;;;3.68;91.42
13767;BME280;47980;48.794;9.176;2024-03-07T05:47:00;98651.53;;;3.78;90.59
13767;BME280;47980;48.794;9.176;2024-03-07T05:49:32;98655.75;;;3.69;92.21
13767;BME280;47980;48.794;9.176;2024-03-07T05:52:04;98657.81;;;3.77;91.34
13767;BME280;47980;48.794;9.176;2024-03-07T05:54:37;98653.94;;;3.49;91.99
13767;BME280;47980;48.794;9.176;2024-03-07T05:57:08;98660.25;;;3.53;92.07
13767;BME280;47980;48.794;9.176;2024-03-07T05:59:40;98650.25;;;3.66;92.51
13767;BME280;47980;48.794;9.176;2024-03-07T06:02:12;98654.72;;;3.65;90.68
13767;BME280;47980;48.794;9.176;2024-03-07T06:04:45;98652.88;;;3.66;89.24
13767;BME280;47980;48.794;9.176;2024-03-07T06:07:17;98652.28;;;3.94;89.36
13767;BME280;47980;48.794;9.176;2024-03-07T06:09:49;98655.69;;;3.95;87.42
13767;BME280;47980;48.794;9.176;2024-03-07T06:12:21;98653.41;;;3.68;89.97
13767;BME280;47980;48.794;9.176;2024-03-07T06:14:52;98647.91;;;3.64;89.44
13767;BME280;47980;48.794;9.176;2024-03-07T06:17:24;98653.66;;;3.66;89.47
13767;BME280;47980;48.794;9.176;2024-03-07T06:19:56;98643.66;;;3.73;89.74
13767;BME280;47980;48.794;9.176;2024-03-07T06:22:29;98649.22;;;3.61;88.91
13767;BME280;47980;48.794;9.176;2024-03-07T06:25:02;98646.31;;;3.78;88.76
13767;BME280;47980;48.794;9.176;2024-03-07T06:27:36;98652.03;;;3.91;88.44
13767;BME280;47980;48.794;9.176;2024-03-07T06:30:18;98649.88;;;4.03;87.06
13767;BME280;47980;48.794;9.176;2024-03-07T06:32:49;98652.91;;;4.35;87.87
13767;BME280;47980;48.794;9.176;2024-03-07T06:35:20;98656.03;;;4.43;85.08
13767;BME280;47980;48.794;9.176;2024-03-07T06:37:52;98642.97;;;4.27;85.74
13767;BME280;47980;48.794;9.176;2024-03-07T06:40:25;98646.50;;;4.57;85.41
13767;BME280;47980;48.794;9.176;2024-03-07T06:42:56;98643.97;;;4.42;84.44
13767;BME280;47980;48.794;9.176;2024-03-07T06:45:28;98649.31;;;4.21;84.29
13767;BME280;47980;48.794;9.176;2024-03-07T06:47:59;98647.97;;;4.24;84.60
13767;BME280;47980;48.794;9.176;2024-03-07T06:50:31;98654.22;;;4.43;84.04
13767;BME280;47980;48.794;9.176;2024-03-07T06:53:03;98652.44;;;4.23;84.75
13767;BME280;47980;48.794;9.176;2024-03-07T06:55:38;98659.78;;;4.26;83.94
13767;BME280;47980;48.794;9.176;2024-03-07T06:58:09;98658.94;;;4.41;83.12
13767;BME280;47980;48.794;9.176;2024-03-07T07:00:41;98656.63;;;4.29;81.76
13767;BME280;47980;48.794;9.176;2024-03-07T07:03:14;98656.84;;;4.38;83.82
13767;BME280;47980;48.794;9.176;2024-03-07T07:05:46;98667.75;;;4.01;84.20
13767;BME280;47980;48.794;9.176;2024-03-07T07:08:17;98664.56;;;4.09;85.52
13767;BME280;47980;48.794;9.176;2024-03-07T07:10:50;98667.34;;;4.43;84.43
13767;BME280;47980;48.794;9.176;2024-03-07T07:13:24;98670.69;;;4.59;83.65
13767;BME280;47980;48.794;9.176;2024-03-07T07:15:56;98657.84;;;4.52;81.29
13767;BME280;47980;48.794;9.176;2024-03-07T07:18:27;98661.59;;;4.31;82.62
13767;BME280;47980;48.794;9.176;2024-03-07T07:20:58;98660.78;;;4.35;83.96
13767;BME280;47980;48.794;9.176;2024-03-07T07:23:33;98655.63;;;4.15;84.21
13767;BME280;47980;48.794;9.176;2024-03-07T07:26:05;98657.34;;;4.45;82.20
13767;BME280;47980;48.794;9.176;2024-03-07T07:28:37;98654.72;;;4.50;82.82
13767;BME280;47980;48.794;9.176;2024-03-07T07:31:08;98649.06;;;4.13;84.93
13767;BME280;47980;48.794;9.176;2024-03-07T07:33:40;98657.38;;;4.40;81.85
13767;BME280;47980;48.794;9.176;2024-03-07T07:36:11;98658.66;;;4.48;84.40
13767;BME280;47980;48.794;9.176;2024-03-07T07:38:43;98655.94;;;4.63;82.09
13767;BME280;47980;48.794;9.176;2024-03-07T07:41:16;98646.41;;;4.77;82.72
13767;BME280;47980;48.794;9.176;2024-03-07T07:43:47;98659.41;;;4.53;81.95
13767;BME280;47980;48.794;9.176;2024-03-07T07:46:20;98644.06;;;4.76;80.32
13767;BME280;47980;48.794;9.176;2024-03-07T07:48:52;98646.25;;;4.53;83.00
13767;BME280;47980;48.794;9.176;2024-03-07T07:51:23;98638.72;;;4.86;80.44
13767;BME280;47980;48.794;9.176;2024-03-07T07:53:57;98637.69;;;4.82;79.85
13767;BME280;47980;48.794;9.176;2024-03-07T07:56:30;98634.34;;;4.71;79.16
13767;BME280;47980;48.794;9.176;2024-03-07T07:59:02;98633.13;;;4.98;78.53
13767;BME280;47980;48.794;9.176;2024-03-07T08:01:34;98638.91;;;4.55;81.83
13767;BME280;47980;48.794;9.176;2024-03-07T08:04:06;98635.59;;;5.18;78.51
13767;BME280;47980;48.794;9.176;2024-03-07T08:06:40;98632.66;;;4.91;79.00
13767;BME280;47980;48.794;9.176;2024-03-07T08:09:11;98636.72;;;4.73;80.86
13767;BME280;47980;48.794;9.176;2024-03-07T08:11:48;98631.59;;;4.92;80.86
13767;BME280;47980;48.794;9.176;2024-03-07T08:14:20;98633.16;;;4.93;80.96
13767;BME280;47980;48.794;9.176;2024-03-07T08:16:52;98642.28;;;4.61;80.59
13767;BME280;47980;48.794;9.176;2024-03-07T08:19:23;98643.72;;;4.38;82.74
13767;BME280;47980;48.794;9.176;2024-03-07T08:21:55;98639.53;;;4.37;84.36
13767;BME280;47980;48.794;9.176;2024-03-07T08:24:26;98632.16;;;4.39;85.15
13767;BME280;47980;48.794;9.176;2024-03-07T08:26:59;98630.59;;;4.38;83.79
13767;BME280;47980;48.794;9.176;2024-03-07T08:29:32;98629.75;;;4.48;83.96
13767;BME280;47980;48.794;9.176;2024-03-07T08:32:04;98627.22;;;4.72;83.23
13767;BME280;47980;48.794;9.176;2024-03-07T08:34:36;98636.03;;;4.52;80.47
13767;BME280;47980;48.794;9.176;2024-03-07T08:37:08;98622.25;;;4.70;81.04
13767;BME280;47980;48.794;9.176;2024-03-07T08:39:40;98620.34;;;5.15;79.11
13767;BME280;47980;48.794;9.176;2024-03-07T08:42:13;98616.31;;;5.28;78.72
13767;BME280;47980;48.794;9.176;2024-03-07T08:44:46;98626.66;;;5.48;79.67
13767;BME280;47980;48.794;9.176;2024-03-07T08:47:18;98621.75;;;5.37;77.98
13767;BME280;47980;48.794;9.176;2024-03-07T08:49:50;98621.66;;;5.47;79.63
13767;BME280;47980;48.794;9.176;2024-03-07T08:52:22;98616.94;;;5.73;76.23
13767;BME280;47980;48.794;9.176;2024-03-07T08:54:53;98614.00;;;5.50;76.04
13767;BME280;47980;48.794;9.176;2024-03-07T08:57:27;98610.69;;;5.93;75.84
13767;BME280;47980;48.794;9.176;2024-03-07T08:59:58;98618.22;;;6.23;74.80
13767;BME280;47980;48.794;9.176;2024-03-07T09:02:31;98616.91;;;6.02;75.74
13767;BME280;47980;48.794;9.176;2024-03-07T09:05:06;98616.50;;;5.90;74.30
13767;BME280;47980;48.794;9.176;2024-03-07T09:07:40;98611.09;;;6.24;74.61
13767;BME280;47980;48.794;9.176;2024-03-07T09:10:11;98604.81;;;6.44;73.97
13767;BME280;47980;48.794;9.176;2024-03-07T09:12:47;98609.13;;;6.35;71.66
13767;BME280;47980;48.794;9.176;2024-03-07T09:15:20;98613.66;;;6.10;72.43
13767;BME280;47980;48.794;9.176;2024-03-07T09:17:51;98612.41;;;6.02;73.76
13767;BME280;47980;48.794;9.176;2024-03-07T09:20:24;98602.50;;;6.18;74.10
13767;BME280;47980;48.794;9.176;2024-03-07T09:22:55;98606.97;;;6.18;75.30
13767;BME280;47980;48.794;9.176;2024-03-07T09:25:27;98606.38;;;6.83;71.97
13767;BME280;47980;48.794;9.176;2024-03-07T09:27:59;98599.16;;;7.21;68.15
13767;BME280;47980;48.794;9.176;2024-03-07T09:30:31;98601.69;;;6.93;71.07
13767;BME280;47980;48.794;9.176;2024-03-07T09:33:02;98600.88;;;6.41;73.90
13767;BME280;47980;48.794;9.176;2024-03-07T09:35:34;98598.00;;;6.94;71.24
13767;BME280;47980;48.794;9.176;2024-03-07T09:38:06;98593.00;;;7.12;70.53
13767;BME280;47980;48.794;9.176;2024-03-07T09:40:40;98594.81;;;7.11;69.99
13767;BME280;47980;48.794;9.176;2024-03-07T09:43:13;98595.06;;;7.29;69.76
13767;BME280;47980;48.794;9.176;2024-03-07T09:45:46;98595.00;;;7.01;70.74
13767;BME280;47980;48.794;9.176;2024-03-07T09:48:18;98595.41;;;7.41;68.49
13767;BME280;47980;48.794;9.176;2024-03-07T09:50:52;98592.38;;;7.15;70.95
13767;BME280;47980;48.794;9.176;2024-03-07T09:53:26;98592.63;;;6.99;71.24
13767;BME280;47980;48.794;9.176;2024-03-07T09:55:58;98590.19;;;7.36;69.48
13767;BME280;47980;48.794;9.176;2024-03-07T09:58:32;98585.28;;;7.29;70.59
13767;BME280;47980;48.794;9.176;2024-03-07T10:01:05;98592.88;;;7.63;68.14
13767;BME280;47980;48.794;9.176;2024-03-07T10:03:43;98590.53;;;7.76;67.87
13767;BME280;47980;48.794;9.176;2024-03-07T10:06:16;98589.78;;;6.96;71.19
13767;BME280;47980;48.794;9.176;2024-03-07T10:08:48;98584.84;;;7.55;72.07
13767;BME280;47980;48.794;9.176;2024-03-07T10:11:19;98585.13;;;7.07;72.10
13767;BME280;47980;48.794;9.176;2024-03-07T10:13:54;98579.06;;;7.39;72.34
13767;BME280;47980;48.794;9.176;2024-03-07T10:16:25;98585.13;;;7.53;69.56
13767;BME280;47980;48.794;9.176;2024-03-07T10:18:57;98581.13;;;7.69;69.18
13767;BME280;47980;48.794;9.176;2024-03-07T10:21:28;98585.41;;;7.38;69.90
13767;BME280;47980;48.794;9.176;2024-03-07T10:24:06;98580.44;;;7.64;71.64
13767;BME280;47980;48.794;9.176;2024-03-07T10:26:40;98582.22;;;7.82;70.00
13767;BME280;47980;48.794;9.176;2024-03-07T10:29:13;98577.81;;;7.64;69.44
13767;BME280;47980;48.794;9.176;2024-03-07T10:31:44;98572.41;;;7.41;69.78
13767;BME280;47980;48.794;9.176;2024-03-07T10:34:16;98585.00;;;7.31;70.98
13767;BME280;47980;48.794;9.176;2024-03-07T10:36:47;98579.19;;;8.03;67.93
13767;BME280;47980;48.794;9.176;2024-03-07T10:39:19;98572.91;;;7.99;66.33
13767;BME280;47980;48.794;9.176;2024-03-07T10:41:53;98572.72;;;8.59;65.38
13767;BME280;47980;48.794;9.176;2024-03-07T10:44:29;98578.63;;;8.42;65.54
13767;BME280;47980;48.794;9.176;2024-03-07T10:47:02;98569.16;;;8.86;65.99
13767;BME280;47980;48.794;9.176;2024-03-07T10:49:36;98560.25;;;8.59;65.44
13767;BME280;47980;48.794;9.176;2024-03-07T10:52:17;98564.59;;;8.78;65.74
13767;BME280;47980;48.794;9.176;2024-03-07T10:55:06;98566.03;;;8.39;65.10
13767;BME280;47980;48.794;9.176;2024-03-07T10:57:48;98571.00;;;8.27;67.29
13767;BME280;47980;48.794;9.176;2024-03-07T11:00:26;98565.28;;;8.61;67.22
13767;BME280;47980;48.794;9.176;2024-03-07T11:03:06;98564.03;;;8.44;65.81
13767;BME280;47980;48.794;9.176;2024-03-07T11:05:38;98558.44;;;8.82;65.97
13767;BME280;47980;48.794;9.176;2024-03-07T11:08:10;98557.88;;;8.94;66.42
13767;BME280;47980;48.794;9.176;2024-03-07T11:10:43;98551.72;;;9.38;64.58
13767;BME280;47980;48.794;9.176;2024-03-07T11:13:17;98549.94;;;9.25;64.65
13767;BME280;47980;48.794;9.176;2024-03-07T11:15:51;98544.22;;;9.32;65.49
13767;BME280;47980;48.794;9.176;2024-03-07T11:18:27;98548.88;;;9.66;64.17
13767;BME280;47980;48.794;9.176;2024-03-07T11:21:01;98536.34;;;9.18;65.63
13767;BME280;47980;48.794;9.176;2024-03-07T11:23:33;98535.97;;;9.73;63.60
13767;BME280;47980;48.794;9.176;2024-03-07T11:26:09;98530.78;;;9.68;63.06
13767;BME280;47980;48.794;9.176;2024-03-07T11:28:42;98535.00;;;9.69;62.08
13767;BME280;47980;48.794;9.176;2024-03-07T11:31:15;98516.44;;;9.52;64.90
13767;BME280;47980;48.794;9.176;2024-03-07T11:34:12;98523.72;;;10.03;62.88
13767;BME280;47980;48.794;9.176;2024-03-07T11:36:45;98520.78;;;10.31;61.49
13767;BME280;47980;48.794;9.176;2024-03-07T11:39:41;98511.41;;;9.50;63.71
13767;BME280;47980;48.794;9.176;2024-03-07T11:42:20;98512.16;;;10.08;62.58
13767;BME280;47980;48.794;9.176;2024-03-07T11:44:56;98511.09;;;9.43;64.27
13767;BME280;47980;48.794;9.176;2024-03-07T11:47:35;98505.69;;;10.31;62.64
13767;BME280;47980;48.794;9.176;2024-03-07T11:50:08;98503.31;;;10.21;62.85
13767;BME280;47980;48.794;9.176;2024-03-07T11:52:41;98496.41;;;10.20;62.47
13767;BME280;47980;48.794;9.176;2024-03-07T11:55:14;98492.78;;;9.64;65.03
13767;BME280;47980;48.794;9.176;2024-03-07T11:57:46;98491.66;;;9.56;62.72
13767;BME280;47980;48.794;9.176;2024-03-07T12:00:19;98490.47;;;9.80;63.14
13767;BME280;47980;48.794;9.176;2024-03-07T12:02:55;98486.38;;;9.16;64.61
13767;BME280;47980;48.794;9.176;2024-03-07T12:05:26;98486.78;;;9.41;65.02
13767;BME280;47980;48.794;9.176;2024-03-07T12:07:58;98482.81;;;9.70;62.46
13767;BME280;47980;48.794;9.176;2024-03-07T12:10:30;98484.50;;;9.65;63.01
13767;BME280;47980;48.794;9.176;2024-03-07T12:13:03;98488.09;;;9.21;63.93
13767;BME280;47980;48.794;9.176;2024-03-07T12:15:35;98480.78;;;9.18;63.44
13767;BME280;47980;48.794;9.176;2024-03-07T12:18:10;98476.00;;;9.29;62.70
13767;BME280;47980;48.794;9.176;2024-03-07T12:20:44;98474.00;;;9.34;64.22
13767;BME280;47980;48.794;9.176;2024-03-07T12:23:22;98476.81;;;9.38;63.68
13767;BME280;47980;48.794;9.176;2024-03-07T12:25:59;98473.78;;;9.22;63.25
13767;BME280;47980;48.794;9.176;2024-03-07T12:28:31;98479.38;;;9.12;63.45
13767;BME280;47980;48.794;9.176;2024-03-07T12:31:03;98469.25;;;9.14;65.12
13767;BME280;47980;48.794;9.176;2024-03-07T12:33:47;98465.63;;;9.41;65.08
13767;BME280;47980;48.794;9.176;2024-03-07T12:36:21;98465.47;;;9.06;66.64
13767;BME280;47980;48.794;9.176;2024-03-07T12:38:57;98465.34;;;9.11;65.63
13767;BME280;47980;48.794;9.176;2024-03-07T12:41:28;98467.66;;;9.44;65.03
13767;BME280;47980;48.794;9.176;2024-03-07T12:44:00;98465.44;;;9.37;65.63
13767;BME280;47980;48.794;9.176;2024-03-07T12:46:32;98463.41;;;9.34;62.92
13767;BME280;47980;48.794;9.176;2024-03-07T12:49:05;98465.63;;;9.41;64.61
13767;BME280;47980;48.794;9.176;2024-03-07T12:51:37;98465.97;;;9.08;65.79
13767;BME280;47980;48.794;9.176;2024-03-07T12:54:12;98459.81;;;8.90;65.92
13767;BME280;47980;48.794;9.176;2024-03-07T12:56:43;98463.50;;;9.12;66.43
13767;BME280;47980;48.794;9.176;2024-03-07T12:59:14;98459.75;;;9.13;65.66
13767;BME280;47980;48.794;9.176;2024-03-07T13:01:46;98454.78;;;9.20;63.75
13767;BME280;47980;48.794;9.176;2024-03-07T13:04:19;98455.91;;;9.36;64.54
13767;BME280;47980;48.794;9.176;2024-03-07T13:06:51;98460.00;;;9.51;64.77
13767;BME280;47980;48.794;9.176;2024-03-07T13:09:22;98451.72;;;9.35;64.05
13767;BME280;47980;48.794;9.176;2024-03-07T13:11:57;98454.97;;;9.24;62.26
13767;BME280;47980;48.794;9.176;2024-03-07T13:14:32;98451.88;;;9.39;63.54
13767;BME280;47980;48.794;9.176;2024-03-07T13:17:04;98456.47;;;9.56;63.77
13767;BME280;47980;48.794;9.176;2024-03-07T13:19:37;98450.84;;;9.57;63.29
13767;BME280;47980;48.794;9.176;2024-03-07T13:22:09;98449.13;;;9.53;63.47
13767;BME280;47980;48.794;9.176;2024-03-07T13:24:42;98452.72;;;9.57;62.22
13767;BME280;47980;48.794;9.176;2024-03-07T13:27:14;98444.31;;;9.72;63.14
13767;BME280;47980;48.794;9.176;2024-03-07T13:29:49;98447.09;;;9.01;63.93
13767;BME280;47980;48.794;9.176;2024-03-07T13:32:21;98446.44;;;9.35;64.65
13767;BME280;47980;48.794;9.176;2024-03-07T13:34:54;98442.06;;;9.31;64.40
13767;BME280;47980;48.794;9.176;2024-03-07T13:37:25;98449.41;;;9.51;63.59
13767;BME280;47980;48.794;9.176;2024-03-07T13:39:57;98452.22;;;9.55;63.53